Time;durP1;ratioP1;P1;durP2;ratioP2;P2;SDS_P1;SDS_P2;PMS_P1;PMS_P2;Temp;Humidity;BMP_temperature;BMP_pressure;BME280_temperature;BME280_humidity;BME280_pressure;Samples;Min_cycle;Max_cycle;Signal;HPM_P1;HPM_P2
2023/05/13 00:01:41;;;;;;;;;;;;;;;;;;;;;
2023/05/13 00:04:16;;;;;;;3.70;2.80;;;16.50;97.40;;;;;;6138670;23;19944;-95
2023/05/13 00:06:42;;;;;;;5.60;2.72;;;16.50;97.60;;;;;;6137320;23;20005;-94
2023/05/13 00:09:15;;;;;;;3.78;2.58;;;16.50;97.70;;;;;;6135687;23;20002;-95
2023/05/13 00:12:06;;;;;;;4.82;3.10;;;16.50;97.70;;;;;;6119887;23;20005;-95
2023/05/13 00:14:34;;;;;;;5.72;3.03;;;16.40;97.40;;;;;;6136747;23;20024;-94
2023/05/13 00:17:03;;;;;;;4.05;2.92;;;16.40;97.40;;;;;;6112495;23;20056;-93
2023/05/13 00:19:36;;;;;;;3.80;2.65;;;16.40;97.40;;;;;;6138030;23;20001;-93
2023/05/13 00:22:07;;;;;;;4.32;3.17;;;16.30;97.30;;;;;;6136854;23;20005;-94
2023/05/13 00:24:50;;;;;;;3.95;3.20;;;16.30;97.10;;;;;;6141749;23;20021;-94
2023/05/13 00:27:31;;;;;;;;;;;;;;;;;;;;;
2023/05/13 00:30:10;;;;;;;3.08;2.47;;;16.30;97.00;;;;;;6146511;23;20025;-96
2023/05/13 00:32:53;;;;;;;3.50;3.00;;;16.20;97.00;;;;;;6169920;23;20005;-95
2023/05/13 00:35:25;;;;;;;5.75;3.25;;;16.20;96.90;;;;;;6122439;23;20025;-95
2023/05/13 00:37:55;;;;;;;5.53;3.10;;;16.20;96.70;;;;;;6128914;23;20025;-94
2023/05/13 00:40:24;;;;;;;4.60;3.08;;;16.20;96.80;;;;;;6105364;23;19990;-93
2023/05/13 00:43:00;;;;;;;5.05;3.35;;;16.20;96.70;;;;;;6127755;23;19997;-93
2023/05/13 00:45:31;;;;;;;3.55;2.97;;;16.10;96.70;;;;;;6128521;23;20041;-94
2023/05/13 00:48:02;;;;;;;4.68;3.25;;;16.10;96.80;;;;;;6121361;23;20033;-95
2023/05/13 00:50:30;;;;;;;3.85;3.22;;;16.10;96.90;;;;;;6093020;23;20006;-94
2023/05/13 00:52:59;;;;;;;6.63;3.13;;;16.10;97.00;;;;;;6114627;23;20105;-96
2023/05/13 00:55:35;;;;;;;4.65;3.20;;;16.10;97.10;;;;;;6137929;23;20008;-94
2023/05/13 00:58:16;;;;;;;;;;;;;;;;;;;;;
2023/05/13 01:01:07;;;;;;;5.63;3.78;;;15.90;96.90;;;;;;6139223;23;20038;-94
2023/05/13 01:03:55;;;;;;;4.75;3.50;;;15.90;96.90;;;;;;6110446;23;20014;-95
2023/05/13 01:06:49;;;;;;;5.78;3.33;;;15.90;96.90;;;;;;6111982;23;20002;-95
2023/05/13 01:09:56;;;;;;;5.47;3.90;;;15.80;97.00;;;;;;6108480;23;20010;-94
2023/05/13 01:12:44;;;;;;;4.28;3.20;;;15.80;96.90;;;;;;6030141;23;20088;-94
2023/05/13 01:15:26;;;;;;;5.20;4.10;;;15.80;97.00;;;;;;6107390;23;20006;-92
2023/05/13 01:18:13;;;;;;;4.70;3.47;;;15.70;96.90;;;;;;6105345;23;20002;-93
2023/05/13 01:20:54;;;;;;;6.20;4.18;;;15.70;97.10;;;;;;6110461;23;20002;-93
2023/05/13 01:23:28;;;;;;;5.63;3.03;;;15.70;97.30;;;;;;6110881;23;19998;-95
2023/05/13 01:25:56;;;;;;;5.50;4.13;;;15.60;97.40;;;;;;6111386;23;20009;-94
2023/05/13 01:29:06;;;;;;;6.10;3.72;;;15.60;97.40;;;;;;6106972;23;20065;-95
2023/05/13 01:31:32;;;;;;;5.18;3.53;;;15.60;97.50;;;;;;6128352;23;20372;-93
2023/05/13 01:34:16;;;;;;;5.13;3.17;;;15.50;97.60;;;;;;6108816;23;20012;-95
2023/05/13 01:36:46;;;;;;;5.22;3.60;;;15.50;97.70;;;;;;6124238;23;20017;-95
2023/05/13 01:39:21;;;;;;;4.57;3.20;;;15.40;97.90;;;;;;6114351;23;20002;-94
2023/05/13 01:41:54;;;;;;;4.40;3.67;;;15.40;97.90;;;;;;6111191;23;20005;-94
2023/05/13 01:44:28;;;;;;;6.03;3.78;;;15.40;98.00;;;;;;6088115;23;20014;-94
2023/05/13 01:47:14;;;;;;;6.30;3.80;;;15.40;98.00;;;;;;6084197;23;20069;-94
2023/05/13 01:49:43;;;;;;;4.45;3.50;;;15.40;98.10;;;;;;6135522;23;20037;-93
2023/05/13 01:52:21;;;;;;;5.50;3.75;;;15.40;98.10;;;;;;6106615;23;20006;-93
2023/05/13 01:54:54;;;;;;;5.43;4.10;;;15.30;98.20;;;;;;6131381;23;20446;-93
2023/05/13 01:57:20;;;;;;;6.80;4.10;;;15.30;98.10;;;;;;6106396;23;20008;-94
2023/05/13 01:59:45;;;;;;;4.32;3.88;;;15.30;98.10;;;;;;6106750;23;20081;-93
2023/05/13 02:02:21;;;;;;;5.22;4.07;;;15.30;98.20;;;;;;6108468;23;20005;-93
2023/05/13 02:04:47;;;;;;;8.10;4.32;;;15.20;98.30;;;;;;6085246;23;20077;-94
2023/05/13 02:07:12;;;;;;;8.82;4.57;;;15.20;98.20;;;;;;6104772;23;20001;-95
2023/05/13 02:09:48;;;;;;;5.70;3.90;;;15.10;98.30;;;;;;6108625;23;20334;-94
2023/05/13 02:12:26;;;;;;;5.00;3.92;;;15.10;98.30;;;;;;6108578;23;20006;-94
2023/05/13 02:15:01;;;;;;;6.18;4.32;;;15.10;98.50;;;;;;6110988;23;20065;-94
2023/05/13 02:17:50;;;;;;;6.78;4.25;;;15.10;98.50;;;;;;6137436;23;20005;-94
2023/05/13 02:20:19;;;;;;;5.30;3.97;;;15.00;98.50;;;;;;6123550;23;19991;-94
2023/05/13 02:22:49;;;;;;;5.38;3.88;;;15.00;98.60;;;;;;6107035;23;20014;-93
2023/05/13 02:25:20;;;;;;;5.05;4.03;;;15.00;98.60;;;;;;6129466;23;20025;-95
2023/05/13 02:27:52;;;;;;;5.43;4.20;;;15.00;98.80;;;;;;6106180;23;19990;-95
2023/05/13 02:30:34;;;;;;;4.93;4.43;;;14.90;98.80;;;;;;6129277;23;19994;-91
2023/05/13 02:33:05;;;;;;;7.25;4.75;;;14.90;99.00;;;;;;6126808;23;20017;-93
2023/05/13 02:35:51;;;;;;;6.80;4.35;;;14.80;99.00;;;;;;6098800;23;20026;-94
2023/05/13 02:38:37;;;;;;;5.00;4.30;;;14.80;99.10;;;;;;6113466;23;20021;-93
2023/05/13 02:41:19;;;;;;;7.85;4.32;;;14.80;99.10;;;;;;6123284;23;20032;-95
2023/05/13 02:44:15;;;;;;;5.50;4.63;;;14.80;99.10;;;;;;6166195;23;20001;-94
2023/05/13 02:49:37;;;;;;;5.70;4.47;;;14.70;99.20;;;;;;6143775;23;20009;-94
2023/05/13 02:52:19;;;;;;;6.07;4.35;;;14.60;99.20;;;;;;6135290;23;20005;-93
2023/05/13 02:54:57;;;;;;;5.45;4.32;;;14.60;99.20;;;;;;6111872;23;20020;-92
2023/05/13 02:57:45;;;;;;;5.05;4.53;;;14.60;99.30;;;;;;6134396;23;20005;-94
2023/05/13 03:00:42;;;;;;;5.43;4.55;;;14.60;99.40;;;;;;6139841;23;20021;-95
2023/05/13 03:03:38;;;;;;;;;;;;;;;;;;;;;
2023/05/13 03:06:27;;;;;;;5.15;4.65;;;14.50;99.50;;;;;;6145085;23;20040;-93
2023/05/13 03:09:14;;;;;;;5.70;5.10;;;14.50;99.60;;;;;;6117239;23;20010;-95
2023/05/13 03:12:06;;;;;;;5.63;4.60;;;14.40;99.80;;;;;;6136125;23;20001;-94
2023/05/13 03:14:38;;;;;;;;;;;14.40;99.90;;;;;;6149145;23;20009;-94
2023/05/13 03:17:18;;;;;;;6.47;4.45;;;14.40;99.90;;;;;;6144594;23;19900;-95
2023/05/13 03:19:44;;;;;;;6.55;4.47;;;14.30;99.90;;;;;;6117230;23;20017;-93
2023/05/13 03:22:22;;;;;;;;;;;;;;;;;;;;;
2023/05/13 03:25:04;;;;;;;;;;;;;;;;;;;;;
2023/05/13 03:27:45;;;;;;;6.05;4.60;;;14.20;99.90;;;;;;6169064;23;20025;-96
2023/05/13 03:30:20;;;;;;;6.65;4.75;;;14.20;99.90;;;;;;6144362;23;20068;-95
2023/05/13 03:32:45;;;;;;;5.78;4.72;;;14.20;99.90;;;;;;6141401;23;20013;-95
2023/05/13 03:35:24;;;;;;;6.53;5.30;;;14.20;99.90;;;;;;6136340;23;20093;-95
2023/05/13 03:37:52;;;;;;;5.88;5.03;;;14.10;99.90;;;;;;6143924;23;20037;-94
2023/05/13 03:40:39;;;;;;;6.57;5.43;;;14.10;99.90;;;;;;6138242;23;19998;-94
2023/05/13 03:43:43;;;;;;;8.13;5.30;;;14.10;99.90;;;;;;6141815;23;20002;-93
2023/05/13 03:46:12;;;;;;;9.35;5.53;;;14.10;99.90;;;;;;6138920;23;20041;-94
2023/05/13 03:48:38;;;;;;;7.30;5.43;;;14.00;99.90;;;;;;6133878;23;20001;-94
2023/05/13 03:51:09;;;;;;;7.28;5.20;;;14.00;99.90;;;;;;6141942;23;20024;-94
2023/05/13 03:53:43;;;;;;;6.95;4.78;;;13.90;99.90;;;;;;6142650;23;20010;-95
2023/05/13 03:56:21;;;;;;;5.78;4.90;;;13.90;99.90;;;;;;6144426;23;20084;-94
2023/05/13 03:58:47;;;;;;;8.00;5.50;;;13.90;99.90;;;;;;6144683;23;20424;-93
2023/05/13 04:01:13;;;;;;;7.25;5.43;;;13.90;99.90;;;;;;6153234;23;20020;-94
2023/05/13 04:03:40;;;;;;;6.88;5.53;;;13.90;99.90;;;;;;6183623;23;19992;-90
2023/05/13 04:06:41;;;;;;;;;;;;;;;;;;;;;
2023/05/13 04:09:21;;;;;;;6.78;5.47;;;13.90;99.90;;;;;;6173690;23;20009;-91
2023/05/13 04:11:54;;;;;;;6.38;5.68;;;13.90;99.90;;;;;;6176442;23;20002;-93
2023/05/13 04:17:52;;;;;;;;;;;;;;;;;;;;;
2023/05/13 04:20:35;;;;;;;;;;;;;;;;;;;;;
2023/05/13 04:23:01;;;;;;;6.75;5.40;;;13.80;99.90;;;;;;6166828;23;20025;-94
2023/05/13 04:25:43;;;;;;;7.05;5.72;;;13.80;99.90;;;;;;6120072;23;20025;-94
2023/05/13 04:28:19;;;;;;;8.20;6.07;;;13.80;99.90;;;;;;6174911;23;20010;-92
2023/05/13 04:31:05;;;;;;;10.35;5.90;;;13.70;99.90;;;;;;6151621;23;20016;-95
2023/05/13 04:34:05;;;;;;;;;;;;;;;;;;;;;
2023/05/13 04:36:57;;;;;;;10.23;5.88;;;13.70;99.90;;;;;;6181349;23;20024;-94
2023/05/13 04:42:17;;;;;;;7.38;6.47;;;13.70;99.90;;;;;;6178036;23;20005;-95
2023/05/13 04:45:11;;;;;;;6.88;5.78;;;13.70;99.90;;;;;;6198925;23;20095;-94
2023/05/13 04:47:44;;;;;;;8.65;6.45;;;13.70;99.90;;;;;;6173114;23;20384;-95
2023/05/13 04:50:26;;;;;;;6.60;5.95;;;13.70;99.90;;;;;;6149427;23;20009;-95
2023/05/13 04:52:57;;;;;;;6.55;5.95;;;13.70;99.90;;;;;;6174915;23;20029;-95
2023/05/13 04:55:23;;;;;;;7.57;6.28;;;13.70;99.90;;;;;;6169043;23;20013;-94
2023/05/13 04:57:52;;;;;;;9.32;5.88;;;13.70;99.90;;;;;;6167058;23;20013;-93
2023/05/13 05:00:20;;;;;;;8.38;6.18;;;13.80;99.90;;;;;;6164724;23;20077;-93
2023/05/13 05:02:48;;;;;;;8.15;6.28;;;13.80;99.90;;;;;;6166669;23;20036;-94
2023/05/13 05:05:17;;;;;;;8.07;6.65;;;13.80;99.90;;;;;;6168387;23;20013;-94
2023/05/13 05:07:43;;;;;;;8.68;7.00;;;13.80;99.90;;;;;;6194399;23;20120;-92
2023/05/13 05:10:14;;;;;;;8.23;6.40;;;13.80;99.90;;;;;;6147734;23;20013;-94
2023/05/13 05:12:50;;;;;;;9.40;6.93;;;13.80;99.90;;;;;;6139025;23;19997;-94
2023/05/13 05:15:19;;;;;;;8.90;6.80;;;13.80;99.90;;;;;;6117948;23;20016;-94
2023/05/13 05:17:53;;;;;;;8.93;6.65;;;13.80;99.90;;;;;;6122462;23;20447;-93
2023/05/13 05:20:23;;;;;;;8.52;6.90;;;13.80;99.90;;;;;;6142491;23;20005;-93
2023/05/13 05:23:10;;;;;;;9.77;7.32;;;13.80;99.90;;;;;;6148532;23;20014;-94
2023/05/13 05:25:59;;;;;;;8.02;7.15;;;13.80;99.90;;;;;;6124664;23;20090;-94
2023/05/13 05:28:35;;;;;;;7.75;6.32;;;13.70;99.90;;;;;;6170233;23;20004;-94
2023/05/13 05:31:03;;;;;;;7.30;6.28;;;13.70;99.90;;;;;;6172533;23;19997;-94
2023/05/13 05:33:39;;;;;;;10.05;6.30;;;13.80;99.90;;;;;;6127973;23;20005;-94
2023/05/13 05:36:08;;;;;;;7.47;6.00;;;13.80;99.90;;;;;;6159639;23;20045;-94
2023/05/13 05:38:36;;;;;;;7.60;5.95;;;13.80;99.90;;;;;;6159961;23;19994;-95
2023/05/13 05:41:13;;;;;;;8.82;6.85;;;13.80;99.90;;;;;;6160113;23;19990;-95
2023/05/13 05:43:45;;;;;;;10.32;7.07;;;13.90;99.90;;;;;;6160218;23;19994;-93
2023/05/13 05:46:18;;;;;;;7.25;6.38;;;13.90;99.90;;;;;;6160102;23;19997;-93
2023/05/13 05:48:44;;;;;;;6.68;6.03;;;13.90;99.90;;;;;;6148299;23;19986;-94
2023/05/13 05:51:15;;;;;;;9.30;5.82;;;14.00;99.90;;;;;;6155452;23;20512;-94
2023/05/13 05:53:46;;;;;;;8.93;5.95;;;14.00;99.90;;;;;;6151312;23;20001;-94
2023/05/13 05:56:14;;;;;;;;;;;14.00;99.90;;;;;;6123039;23;20010;-93
2023/05/13 05:58:43;;;;;;;7.75;6.88;;;14.10;99.90;;;;;;6161888;23;19907;-93
2023/05/13 06:04:58;;;;;;;9.70;7.40;;;14.00;99.90;;;;;;6015454;23;20020;-91
2023/05/13 06:07:57;;;;;;;;;;;;;;;;;;;;;
2023/05/13 06:10:38;;;;;;;10.75;7.38;;;14.00;99.90;;;;;;6129023;23;20077;-90
2023/05/13 06:13:04;;;;;;;9.40;7.00;;;14.10;99.90;;;;;;6133406;23;20002;-91
2023/05/13 06:15:30;;;;;;;7.00;6.25;;;14.10;99.90;;;;;;6133098;23;20060;-89
2023/05/13 06:18:04;;;;;;;6.72;5.88;;;14.20;99.90;;;;;;6133359;23;19997;-93
2023/05/13 06:20:36;;;;;;;10.68;7.50;;;14.30;99.90;;;;;;6133169;23;20008;-91
2023/05/13 06:23:14;;;;;;;6.97;6.28;;;14.30;99.90;;;;;;6158361;23;20006;-91
2023/05/13 06:25:55;;;;;;;;;;;;;;;;;;;;;
2023/05/13 06:28:42;;;;;;;8.20;6.75;;;14.40;99.90;;;;;;6134980;23;20076;-92
2023/05/13 06:31:30;;;;;;;9.80;6.82;;;14.50;99.90;;;;;;6158111;23;20012;-90
2023/05/13 06:34:17;;;;;;;;;;;;;;;;;;;;;
2023/05/13 06:36:51;;;;;;;7.22;6.45;;;14.60;99.90;;;;;;6135502;23;20084;-90
2023/05/13 06:39:19;;;;;;;7.50;6.72;;;14.70;99.90;;;;;;6106756;23;20037;-90
2023/05/13 06:42:05;;;;;;;;;;;;;;;;;;;;;
2023/05/13 06:44:35;;;;;;;8.25;6.80;;;14.80;99.90;;;;;;6135235;23;20392;-91
2023/05/13 06:47:20;;;;;;;7.68;5.97;;;14.90;99.90;;;;;;6159107;23;20025;-91
2023/05/13 06:50:01;;;;;;;6.78;5.80;;;14.90;99.90;;;;;;6109027;23;20002;-90
2023/05/13 06:52:29;;;;;;;;;;;15.00;99.90;;;;;;6133748;23;20032;-90
2023/05/13 06:55:18;;;;;;;11.18;5.75;;;15.10;99.90;;;;;;6133352;23;19900;-90
2023/05/13 06:57:52;;;;;;;8.15;6.18;;;15.20;99.90;;;;;;6123027;23;20006;-93
2023/05/13 07:00:58;;;;;;;6.63;5.63;;;15.30;99.90;;;;;;6161641;23;20002;-91
2023/05/13 07:03:34;;;;;;;7.82;6.28;;;15.30;99.90;;;;;;6119062;23;20025;-90
2023/05/13 07:06:29;;;;;;;8.20;6.70;;;15.40;99.90;;;;;;6111512;23;20029;-93
2023/05/13 07:09:13;;;;;;;9.13;6.30;;;15.40;99.90;;;;;;6139557;23;20060;-92
2023/05/13 07:11:47;;;;;;;8.60;6.57;;;15.50;99.90;;;;;;6165949;23;20008;-93
2023/05/13 07:14:46;;;;;;;7.18;5.80;;;15.60;99.90;;;;;;6143241;23;20671;-92
2023/05/13 07:17:44;;;;;;;7.70;5.88;;;15.60;99.90;;;;;;6168108;23;20066;-92
2023/05/13 07:20:22;;;;;;;9.57;5.60;;;15.80;99.90;;;;;;6148479;23;20012;-92
2023/05/13 07:26:11;;;;;;;6.75;5.22;;;16.00;99.90;;;;;;6174256;23;20019;-92
2023/05/13 07:28:57;;;;;;;5.82;5.20;;;16.10;99.90;;;;;;6188987;23;19993;-92
2023/05/13 07:31:29;;;;;;;10.48;4.97;;;16.20;99.90;;;;;;6180391;23;20013;-92
2023/05/13 07:34:25;;;;;;;6.57;5.38;;;16.30;99.90;;;;;;6124463;23;20022;-94
2023/05/13 07:37:03;;;;;;;7.47;5.53;;;16.40;99.90;;;;;;6128204;23;20348;-92
2023/05/13 07:39:41;;;;;;;5.85;5.15;;;16.50;99.90;;;;;;6162121;23;20048;-93
2023/05/13 07:42:28;;;;;;;6.55;4.90;;;16.60;99.90;;;;;;6114430;23;20010;-93
2023/05/13 07:45:17;;;;;;;6.97;5.47;;;16.60;99.80;;;;;;6139242;23;20443;-92
2023/05/13 07:47:49;;;;;;;8.73;5.47;;;16.70;99.70;;;;;;6150574;23;20006;-92
2023/05/13 07:50:24;;;;;;;7.07;5.43;;;16.80;99.60;;;;;;6136555;23;20001;-91
2023/05/13 07:52:56;;;;;;;8.40;5.45;;;16.90;99.60;;;;;;6136535;23;20012;-94
2023/05/13 07:55:42;;;;;;;7.22;5.15;;;16.90;99.20;;;;;;6161075;23;20340;-94
2023/05/13 07:58:37;;;;;;;6.28;4.65;;;17.00;99.30;;;;;;6135754;23;20002;-94
2023/05/13 08:07:16;;;;;;;6.60;4.65;;;17.30;99.20;;;;;;6131285;23;20009;-93
2023/05/13 08:10:01;;;;;;;6.18;4.10;;;17.40;99.20;;;;;;6136708;23;20005;-96
2023/05/13 08:12:27;;;;;;;7.82;5.00;;;17.50;99.20;;;;;;6134232;23;20446;-93
2023/05/13 08:15:35;;;;;;;5.53;4.30;;;17.60;98.90;;;;;;6158452;23;20005;-92
2023/05/13 08:18:04;;;;;;;5.18;4.50;;;17.70;98.90;;;;;;6133152;23;20010;-91
2023/05/13 08:20:45;;;;;;;;;;;;;;;;;;;;;
2023/05/13 08:23:36;;;;;;;3.75;3.40;;;17.90;98.50;;;;;;6135903;23;20391;-90
2023/05/13 08:26:17;;;;;;;6.88;4.10;;;18.00;97.90;;;;;;6133107;23;20438;-93
2023/05/13 08:29:04;;;;;;;;;;;;;;;;;;;;;
2023/05/13 08:31:58;;;;;;;;;;;;;;;;;;;;;
2023/05/13 08:34:38;;;;;;;6.93;4.15;;;18.40;97.20;;;;;;6137683;23;20105;-94
2023/05/13 08:37:12;;;;;;;4.75;3.67;;;18.50;97.20;;;;;;6134158;23;20064;-94
2023/05/13 08:39:55;;;;;;;4.18;2.83;;;18.60;96.90;;;;;;6110663;23;20013;-92
2023/05/13 08:42:48;;;;;;;5.07;3.72;;;18.70;96.90;;;;;;6160401;23;20104;-91
2023/05/13 08:45:34;;;;;;;3.47;3.17;;;18.80;97.10;;;;;;6151144;23;20037;-93
2023/05/13 08:48:04;;;;;;;3.80;2.80;;;18.90;97.00;;;;;;6135989;23;20033;-93
2023/05/13 08:50:48;;;;;;;4.68;3.20;;;18.90;97.10;;;;;;6139403;23;20001;-94
2023/05/13 08:53:37;;;;;;;4.25;2.90;;;19.00;97.00;;;;;;6147421;23;20006;-91
2023/05/13 08:56:24;;;;;;;4.40;3.15;;;19.20;96.80;;;;;;6134775;23;20064;-94
2023/05/13 08:58:55;;;;;;;4.75;3.55;;;19.20;96.70;;;;;;6123855;23;20048;-94
2023/05/13 09:01:30;;;;;;;8.75;3.30;;;19.40;95.90;;;;;;6133958;23;20009;-94
2023/05/13 09:13:17;;;;;;;7.20;4.20;;;19.60;95.60;;;;;;6174381;23;20004;-92
2023/05/13 09:15:59;;;;;;;4.82;3.55;;;19.70;95.70;;;;;;6148320;23;20076;-94
2023/05/13 09:18:41;;;;;;;;;;;;;;;;;;;;;
2023/05/13 09:21:44;;;;;;;;;;;;;;;;;;;;;
2023/05/13 09:24:48;;;;;;;3.78;3.03;;;19.80;95.10;;;;;;6123106;23;20045;-94
2023/05/13 09:27:25;;;;;;;5.85;3.58;;;19.90;94.60;;;;;;6153653;23;20001;-93
2023/05/13 09:30:21;;;;;;;4.18;3.20;;;19.90;94.40;;;;;;6136748;23;20037;-95
2023/05/13 09:33:28;;;;;;;4.53;3.25;;;20.00;94.40;;;;;;6143209;23;20055;-93
2023/05/13 09:36:21;;;;;;;;;;;;;;;;;;;;;
2023/05/13 09:38:54;;;;;;;6.53;4.03;;;20.10;94.60;;;;;;6149280;23;20072;-94
2023/05/13 09:41:39;;;;;;;;;;;;;;;;;;;;;
2023/05/13 09:44:25;;;;;;;5.10;3.60;;;20.20;94.40;;;;;;6137728;23;20077;-94
2023/05/13 09:53:11;;;;;;;4.43;2.50;;;20.40;93.90;;;;;;6160297;23;20037;-94
2023/05/13 09:56:08;;;;;;;;;;;;;;;;;;;;;
2023/05/13 09:59:02;;;;;;;;;;;;;;;;;;;;;
2023/05/13 10:01:59;;;;;;;;;;;;;;;;;;;;;
2023/05/13 10:04:25;;;;;;;5.15;3.28;;;20.70;92.70;;;;;;6160323;23;20076;-95
2023/05/13 10:07:07;;;;;;;;;;;;;;;;;;;;;
2023/05/13 10:09:49;;;;;;;3.20;2.80;;;20.80;92.60;;;;;;6160338;23;20374;-95
2023/05/13 10:12:25;;;;;;;2.83;2.47;;;20.90;92.20;;;;;;6133595;23;20076;-93
2023/05/13 10:14:57;;;;;;;5.85;3.30;;;20.90;92.40;;;;;;6134861;23;20009;-93
2023/05/13 10:18:12;;;;;;;3.63;2.90;;;21.00;91.80;;;;;;6158104;23;20006;-93
2023/05/13 10:20:51;;;;;;;4.15;2.53;;;21.10;91.30;;;;;;6135360;23;19998;-95
2023/05/13 10:23:22;;;;;;;4.10;2.40;;;21.10;91.50;;;;;;6160580;23;19997;-95
2023/05/13 10:25:53;;;;;;;3.85;2.47;;;21.20;91.20;;;;;;6134483;23;20010;-94
2023/05/13 10:28:27;;;;;;;4.03;2.58;;;21.20;90.20;;;;;;6109541;23;20032;-93
2023/05/13 10:31:24;;;;;;;6.25;3.08;;;21.30;89.00;;;;;;6114481;23;20005;-95
2023/05/13 10:33:54;;;;;;;4.13;2.83;;;21.30;86.90;;;;;;6103643;23;20018;-91
2023/05/13 10:36:46;;;;;;;3.65;2.80;;;21.40;87.00;;;;;;6128159;23;20010;-93
2023/05/13 10:39:54;;;;;;;9.50;2.95;;;21.40;87.20;;;;;;6104939;23;20002;-94
2023/05/13 10:42:48;;;;;;;;;;;;;;;;;;;;;
2023/05/13 10:45:21;;;;;;;3.35;2.50;;;21.40;86.30;;;;;;6136165;23;20050;-92
2023/05/13 10:47:50;;;;;;;4.22;2.45;;;21.40;85.30;;;;;;6130055;23;20002;-91
2023/05/13 10:50:33;;;;;;;;;;;;;;;;;;;;;
2023/05/13 10:53:03;;;;;;;8.05;3.15;;;21.50;85.10;;;;;;6132940;23;20021;-92
2023/05/13 10:55:29;;;;;;;7.82;2.95;;;21.50;85.60;;;;;;6106680;23;20006;-92
2023/05/13 10:58:09;;;;;;;4.40;2.75;;;21.60;83.70;;;;;;6104474;23;20002;-91
2023/05/13 11:00:37;;;;;;;3.47;2.83;;;21.60;83.80;;;;;;6130191;23;20363;-91
2023/05/13 11:03:18;;;;;;;3.78;2.75;;;21.60;84.30;;;;;;6136695;23;20002;-93
2023/05/13 11:06:02;;;;;;;2.90;2.58;;;21.60;84.70;;;;;;6128517;23;20006;-94
2023/05/13 11:08:58;;;;;;;6.18;2.90;;;21.60;86.10;;;;;;6128980;23;20016;-90
2023/05/13 11:11:51;;;;;;;4.78;2.60;;;21.60;86.20;;;;;;6128966;23;19994;-95
2023/05/13 11:14:21;;;;;;;6.07;3.17;;;21.70;86.10;;;;;;6138912;23;20046;-96
2023/05/13 11:17:25;;;;;;;3.78;3.30;;;21.70;84.80;;;;;;6111379;23;20010;-95
2023/05/13 11:20:00;;;;;;;4.57;3.22;;;21.70;84.40;;;;;;6107038;23;20421;-93
2023/05/13 11:22:29;;;;;;;3.70;3.08;;;21.70;84.80;;;;;;6130105;23;20041;-94
2023/05/13 11:25:18;;;;;;;4.65;3.05;;;21.70;85.30;;;;;;6103894;23;20014;-93
2023/05/13 11:27:46;;;;;;;2.83;2.47;;;21.80;85.30;;;;;;6130241;23;20025;-95
2023/05/13 11:30:48;;;;;;;;;;;;;;;;;;;;;
2023/05/13 11:33:14;;;;;;;3.90;2.55;;;21.80;82.50;;;;;;6115797;23;20097;-93
2023/05/13 11:35:43;;;;;;;5.13;2.70;;;21.90;83.40;;;;;;6157870;23;20002;-92
2023/05/13 11:38:23;;;;;;;4.82;3.00;;;22.00;83.50;;;;;;6134094;23;20408;-93
2023/05/13 11:40:55;;;;;;;3.25;2.60;;;22.00;81.30;;;;;;6133393;23;20033;-95
2023/05/13 11:43:26;;;;;;;4.20;2.50;;;22.00;80.80;;;;;;6158117;23;20029;-91
2023/05/13 11:46:01;;;;;;;;;;;22.10;80.90;;;;;;6133488;23;20076;-95
2023/05/13 11:48:36;;;;;;;3.22;2.10;;;22.10;81.00;;;;;;6133921;23;19901;-94
2023/05/13 11:51:07;;;;;;;3.85;2.17;;;22.20;80.00;;;;;;6158021;23;20004;-95
2023/05/13 11:54:01;;;;;;;3.67;2.55;;;22.30;77.70;;;;;;6134202;23;19998;-95
2023/05/13 11:56:51;;;;;;;;;;;;;;;;;;;;;
2023/05/13 11:59:26;;;;;;;4.07;2.60;;;22.40;75.70;;;;;;6138924;23;20038;-93
2023/05/13 12:02:21;;;;;;;4.20;2.22;;;22.40;73.00;;;;;;6169686;23;20001;-94
2023/05/13 12:05:05;;;;;;;4.63;2.40;;;22.50;73.70;;;;;;6182433;23;20014;-93
2023/05/13 12:07:35;;;;;;;3.80;2.40;;;22.50;73.40;;;;;;6157492;23;19993;-93
2023/05/13 12:10:02;;;;;;;2.53;2.13;;;22.50;73.10;;;;;;6181274;23;20005;-94
2023/05/13 12:12:44;;;;;;;;;;;;;;;;;;;;;
2023/05/13 12:15:16;;;;;;;6.80;2.75;;;22.60;72.70;;;;;;6138113;23;20080;-92
2023/05/13 12:17:56;;;;;;;5.07;2.63;;;22.70;72.10;;;;;;6134353;23;20021;-92
2023/05/13 12:20:27;;;;;;;3.95;2.55;;;22.70;71.20;;;;;;6159629;23;20073;-94
2023/05/13 12:23:06;;;;;;;3.63;2.70;;;22.70;70.40;;;;;;6159021;23;20417;-92
2023/05/13 12:25:39;;;;;;;3.30;2.30;;;22.80;70.00;;;;;;6110604;23;20066;-93
2023/05/13 12:28:33;;;;;;;4.10;2.25;;;22.80;70.60;;;;;;6132667;23;20009;-93
2023/05/13 12:31:04;;;;;;;3.75;2.40;;;22.90;71.20;;;;;;6133802;23;20005;-93
2023/05/13 12:33:41;;;;;;;4.40;2.40;;;22.90;71.60;;;;;;6132994;23;20401;-91
2023/05/13 12:36:32;;;;;;;3.97;2.38;;;22.90;72.20;;;;;;6133414;23;20001;-94
2023/05/13 12:39:09;;;;;;;6.32;2.70;;;22.90;72.70;;;;;;6133380;23;20408;-93
2023/05/13 12:41:39;;;;;;;2.65;2.40;;;22.90;72.70;;;;;;6132699;23;20002;-93
2023/05/13 12:44:20;;;;;;;4.93;2.63;;;22.90;73.30;;;;;;6159593;23;20362;-93
2023/05/13 12:46:50;;;;;;;;;;;23.00;71.80;;;;;;6111244;23;20012;-94
2023/05/13 12:49:23;;;;;;;7.05;2.50;;;22.90;70.80;;;;;;6140268;23;19923;-95
2023/05/13 12:52:18;;;;;;;3.35;2.47;;;22.90;71.50;;;;;;6161356;23;20020;-93
2023/05/13 12:54:47;;;;;;;3.30;2.30;;;23.00;71.90;;;;;;6114813;23;20458;-93
2023/05/13 12:57:26;;;;;;;5.35;2.25;;;23.00;72.10;;;;;;6163011;23;20009;-94
2023/05/13 13:00:03;;;;;;;5.97;2.95;;;23.00;71.20;;;;;;6143376;23;20049;-93
2023/05/13 13:02:29;;;;;;;5.50;2.67;;;23.00;68.70;;;;;;6185337;23;20009;-90
2023/05/13 13:05:15;;;;;;;5.60;2.78;;;23.00;67.40;;;;;;6184749;23;20025;-94
2023/05/13 13:07:44;;;;;;;3.60;2.65;;;23.00;66.10;;;;;;6184963;23;19989;-92
2023/05/13 13:10:20;;;;;;;4.30;2.85;;;23.00;66.90;;;;;;6185195;23;19990;-94
2023/05/13 13:13:09;;;;;;;;;;;;;;;;;;;;;
2023/05/13 13:15:38;;;;;;;3.75;2.50;;;23.00;66.50;;;;;;6138204;23;20151;-93
2023/05/13 13:18:12;;;;;;;5.40;2.65;;;23.10;65.90;;;;;;6110898;23;20002;-95
2023/05/13 13:20:54;;;;;;;4.18;2.17;;;23.10;64.90;;;;;;6135166;23;20029;-93
2023/05/13 13:23:23;;;;;;;2.63;2.08;;;23.20;65.40;;;;;;6134112;23;19998;-92
2023/05/13 13:26:02;;;;;;;;;;;;;;;;;;;;;
2023/05/13 13:28:28;;;;;;;4.60;2.80;;;23.30;66.40;;;;;;6136529;23;20077;-92
2023/05/13 13:31:11;;;;;;;2.97;2.20;;;23.30;66.70;;;;;;6158405;23;20375;-92
2023/05/13 13:34:15;;;;;;;2.08;1.88;;;23.30;67.40;;;;;;6129159;23;20025;-92
2023/05/13 13:36:52;;;;;;;2.70;2.20;;;23.30;67.70;;;;;;6130530;23;20002;-93
2023/05/13 13:39:33;;;;;;;;;;;;;;;;;;;;;
2023/05/13 13:42:07;;;;;;;2.78;2.03;;;23.10;67.60;;;;;;6109033;23;20077;-93
2023/05/13 13:44:43;;;;;;;4.70;2.35;;;23.20;66.90;;;;;;6105167;23;20025;-94
2023/05/13 13:47:17;;;;;;;4.18;2.55;;;23.20;66.20;;;;;;6104395;23;20310;-94
2023/05/13 13:50:03;;;;;;;5.53;2.55;;;23.30;66.10;;;;;;6080807;23;20006;-93
2023/05/13 13:52:41;;;;;;;4.97;2.30;;;23.30;66.30;;;;;;6105147;23;20089;-92
2023/05/13 13:55:17;;;;;;;;;;;;;;;;;;;;;
2023/05/13 13:58:01;;;;;;;3.10;2.60;;;23.30;66.80;;;;;;6129627;23;20069;-93
2023/05/13 14:00:30;;;;;;;4.18;2.10;;;23.40;67.00;;;;;;6104012;23;20062;-92
2023/05/13 14:03:13;;;;;;;;;;;;;;;;;;;;;
2023/05/13 14:05:54;;;;;;;5.93;2.30;;;23.40;67.00;;;;;;6107185;23;20062;-91
2023/05/13 14:08:37;;;;;;;;;;;;;;;;;;;;;
2023/05/13 14:11:03;;;;;;;3.35;2.55;;;23.40;66.70;;;;;;6107511;23;20081;-93
2023/05/13 14:13:54;;;;;;;2.30;2.08;;;23.40;65.90;;;;;;6104977;23;20038;-93
2023/05/13 14:16:46;;;;;;;4.90;2.50;;;23.40;66.10;;;;;;6108374;23;20005;-92
2023/05/13 14:19:18;;;;;;;4.35;1.90;;;23.40;66.00;;;;;;6091462;23;20112;-93
2023/05/13 14:21:47;;;;;;;2.75;2.20;;;23.40;66.40;;;;;;6107056;23;20038;-91
2023/05/13 14:24:46;;;;;;;4.13;2.38;;;23.40;66.40;;;;;;6103889;23;20053;-92
2023/05/13 14:27:35;;;;;;;;;;;;;;;;;;;;;
2023/05/13 14:30:15;;;;;;;4.20;2.63;;;23.40;65.90;;;;;;6129593;23;20077;-93
2023/05/13 14:32:44;;;;;;;3.63;2.85;;;23.30;66.10;;;;;;6105855;23;20029;-91
2023/05/13 14:35:35;;;;;;;3.08;2.15;;;23.20;65.60;;;;;;6103654;23;20038;-91
2023/05/13 14:38:26;;;;;;;2.55;2.35;;;23.10;66.00;;;;;;6081840;23;20060;-91
2023/05/13 14:40:58;;;;;;;6.47;2.53;;;23.10;66.30;;;;;;6128549;23;20013;-90
2023/05/13 14:43:31;;;;;;;4.35;2.30;;;23.10;65.70;;;;;;6128151;23;20056;-92
2023/05/13 14:46:35;;;;;;;3.80;2.70;;;23.10;65.80;;;;;;6109847;23;20014;-95
2023/05/13 14:49:17;;;;;;;;;;;;;;;;;;;;;
2023/05/13 14:52:22;;;;;;;;;;;;;;;;;;;;;
2023/05/13 14:58:56;;;;;;;;;;;;;;;;;;;;;
2023/05/13 15:01:35;;;;;;;3.38;2.40;;;23.40;66.30;;;;;;6154840;23;19986;-95
2023/05/13 15:05:13;;;;;;;3.53;2.35;;;23.40;66.60;;;;;;6131782;23;19994;-93
2023/05/13 15:10:30;;;;;;;6.57;2.80;;;23.40;65.30;;;;;;6181671;23;19997;-95
2023/05/13 15:13:28;;;;;;;;;;;;;;;;;;;;;
2023/05/13 15:16:36;;;;;;;;;;;;;;;;;;;;;
2023/05/13 15:22:11;;;;;;;;;;;;;;;;;;;;;
2023/05/13 15:25:16;;;;;;;;;;;;;;;;;;;;;
2023/05/13 15:42:15;;;;;;;;;;;;;;;;;;;;;
2023/05/13 15:48:26;;;;;;;3.67;2.75;;;23.50;62.80;;;;;;6225709;23;20080;-93
2023/05/13 16:08:47;;;;;;;;;;;;;;;;;;;;;
2023/05/13 16:11:59;;;;;;;;;;;;;;;;;;;;;
2023/05/13 16:18:32;;;;;;;;;;;;;;;;;;;;;